Time,TemperatureF,DewpointF,PressureIn,WindDirection,WindDirectionDegrees,WindSpeedMPH,WindSpeedGustMPH,Humidity,HourlyPrecipIn,Conditions,Clouds,dailyrainin,SoftwareType,DateUTC
2013-08-23 00:02:00,71.8,71.2,29.57,WSW,247,0.0,-999.0,98,-99.99,,,0.00,Acu-Link.com,2013-08-23 04:02:00,
2013-08-23 00:17:00,71.8,71.2,29.57,WNW,292,0.0,-999.0,98,-99.99,,,0.00,Acu-Link.com,2013-08-23 04:17:00,
2013-08-23 00:32:00,71.8,71.2,29.57,WSW,247,0.0,-999.0,98,-99.99,,,0.00,Acu-Link.com,2013-08-23 04:32:00,
2013-08-23 00:48:00,71.2,70.6,29.58,West,270,0.0,-999.0,98,-99.99,,,0.00,Acu-Link.com,2013-08-23 04:48:00,
2013-08-23 01:03:00,70.9,70.3,29.57,WSW,247,0.0,-999.0,98,-99.99,,,0.00,Acu-Link.com,2013-08-23 05:03:00,
2013-08-23 01:18:00,70.5,69.9,29.58,West,270,0.0,-999.0,98,-99.99,,,0.00,Acu-Link.com,2013-08-23 05:18:00,
2013-08-23 01:33:00,70.3,69.7,29.57,SW,225,0.0,-999.0,98,-99.99,,,0.00,Acu-Link.com,2013-08-23 05:33:00,
2013-08-23 01:48:00,70.3,69.7,29.58,West,270,0.0,-999.0,98,-99.99,,,0.00,Acu-Link.com,2013-08-23 05:48:00,
2013-08-23 02:03:00,70.2,69.6,29.59,WSW,247,0.0,-999.0,98,-99.99,,,0.00,Acu-Link.com,2013-08-23 06:03:00,
2013-08-23 02:18:00,70.0,69.4,29.58,West,270,0.0,-999.0,98,-99.99,,,0.00,Acu-Link.com,2013-08-23 06:18:00,
2013-08-23 02:33:00,70.0,69.4,29.57,SW,225,0.0,-999.0,98,-99.99,,,0.00,Acu-Link.com,2013-08-23 06:33:00,
2013-08-23 02:48:00,70.2,69.6,29.58,SW,225,0.0,-999.0,98,-99.99,,,0.00,Acu-Link.com,2013-08-23 06:48:00,
2013-08-23 03:03:00,70.2,69.6,29.58,SSW,202,0.0,-999.0,98,-99.99,,,0.00,Acu-Link.com,2013-08-23 07:03:00,
2013-08-23 03:19:00,70.0,69.4,29.58,East,90,0.0,-999.0,98,-99.99,,,0.00,Acu-Link.com,2013-08-23 07:19:00,
2013-08-23 03:34:00,70.2,69.6,29.58,East,90,0.0,-999.0,98,-99.99,,,0.00,Acu-Link.com,2013-08-23 07:34:00,
2013-08-23 03:49:00,70.2,69.6,29.57,West,270,0.0,-999.0,98,-99.99,,,0.00,Acu-Link.com,2013-08-23 07:49:00,
2013-08-23 04:04:00,70.2,69.6,29.58,SW,225,0.0,-999.0,98,-99.99,,,0.00,Acu-Link.com,2013-08-23 08:04:00,
2013-08-23 04:20:00,70.2,69.6,29.57,SW,225,0.0,-999.0,98,-99.99,,,0.00,Acu-Link.com,2013-08-23 08:20:00,
2013-08-23 04:35:00,70.0,69.4,29.59,SW,225,0.0,-999.0,98,-99.99,,,0.00,Acu-Link.com,2013-08-23 08:35:00,
2013-08-23 04:50:00,69.4,68.8,29.58,SW,225,0.0,-999.0,98,-99.99,,,0.00,Acu-Link.com,2013-08-23 08:50:00,
2013-08-23 05:05:00,68.9,68.3,29.58,West,270,0.0,-999.0,98,-99.99,,,0.00,Acu-Link.com,2013-08-23 09:05:00,
2013-08-23 05:20:00,68.5,67.9,29.58,ENE,67,1.1,-999.0,98,-99.99,,,0.00,Acu-Link.com,2013-08-23 09:20:00,
2013-08-23 05:35:00,68.4,67.8,29.59,West,270,0.0,-999.0,98,-99.99,,,0.00,Acu-Link.com,2013-08-23 09:35:00,
2013-08-23 05:51:00,68.0,67.4,29.60,West,270,0.0,-999.0,98,-99.99,,,0.00,Acu-Link.com,2013-08-23 09:51:00,
2013-08-23 06:06:00,67.6,67.0,29.61,WNW,292,0.0,-999.0,98,-99.99,,,0.00,Acu-Link.com,2013-08-23 10:06:00,
2013-08-23 06:21:00,67.1,66.5,29.63,WSW,247,0.0,-999.0,98,-99.99,,,0.00,Acu-Link.com,2013-08-23 10:21:00,
2013-08-23 06:36:00,66.9,66.3,29.63,East,90,0.0,-999.0,98,-99.99,,,0.00,Acu-Link.com,2013-08-23 10:36:00,
2013-08-23 06:51:00,66.9,66.3,29.63,NW,315,0.0,-999.0,98,-99.99,,,0.00,Acu-Link.com,2013-08-23 10:51:00,
2013-08-23 07:06:00,67.3,66.7,29.65,West,270,0.0,-999.0,98,-99.99,,,0.00,Acu-Link.com,2013-08-23 11:06:00,
2013-08-23 07:21:00,68.2,67.6,29.64,West,270,0.0,-999.0,98,-99.99,,,0.00,Acu-Link.com,2013-08-23 11:21:00,
2013-08-23 07:36:00,68.9,68.3,29.65,WSW,247,0.0,-999.0,98,-99.99,,,0.00,Acu-Link.com,2013-08-23 11:36:00,
2013-08-23 07:51:00,69.6,69.0,29.66,South,180,0.0,-999.0,98,-99.99,,,0.00,Acu-Link.com,2013-08-23 11:51:00,
2013-08-23 08:07:00,70.7,70.1,29.66,SSW,202,0.0,-999.0,98,-99.99,,,0.00,Acu-Link.com,2013-08-23 12:07:00,
2013-08-23 08:22:00,71.6,71.0,29.66,East,90,0.0,-999.0,98,-99.99,,,0.00,Acu-Link.com,2013-08-23 12:22:00,
2013-08-23 08:37:00,72.7,72.1,29.67,SE,135,1.1,-999.0,98,-99.99,,,0.00,Acu-Link.com,2013-08-23 12:37:00,
2013-08-23 08:52:00,72.5,71.9,29.66,East,90,2.7,-999.0,98,-99.99,,,0.00,Acu-Link.com,2013-08-23 12:52:00,
2013-08-23 09:07:00,72.9,72.3,29.67,West,270,0.0,-999.0,98,-99.99,,,0.00,Acu-Link.com,2013-08-23 13:07:00,
2013-08-23 09:22:00,72.9,72.3,29.67,SE,135,0.0,-999.0,98,-99.99,,,0.00,Acu-Link.com,2013-08-23 13:22:00,
2013-08-23 09:37:00,73.6,73.0,29.67,NNE,22,0.0,-999.0,98,-99.99,,,0.00,Acu-Link.com,2013-08-23 13:37:00,
2013-08-23 09:52:00,74.1,73.5,29.68,NNE,22,1.1,-999.0,98,-99.99,,,0.00,Acu-Link.com,2013-08-23 13:52:00,
2013-08-23 10:07:00,75.4,74.8,29.68,SE,135,3.2,-999.0,98,-99.99,,,0.00,Acu-Link.com,2013-08-23 14:07:00,
2013-08-23 10:23:00,74.5,73.9,29.68,ESE,112,2.2,-999.0,98,-99.99,,,0.00,Acu-Link.com,2013-08-23 14:23:00,
2013-08-23 10:38:00,76.3,75.7,29.68,East,90,2.7,-999.0,98,-99.99,,,0.00,Acu-Link.com,2013-08-23 14:38:00,
2013-08-23 10:53:00,79.5,78.9,29.67,WSW,247,0.0,-999.0,98,-99.99,,,0.00,Acu-Link.com,2013-08-23 14:53:00,
2013-08-23 11:08:00,78.1,77.5,29.68,ESE,112,2.2,-999.0,98,-99.99,,,0.00,Acu-Link.com,2013-08-23 15:08:00,
2013-08-23 11:23:00,79.3,78.7,29.67,East,90,3.7,-999.0,98,-99.99,,,0.00,Acu-Link.com,2013-08-23 15:23:00,
2013-08-23 11:38:00,77.4,76.8,29.67,ENE,67,7.3,-999.0,98,-99.99,,,0.00,Acu-Link.com,2013-08-23 15:38:00,
2013-08-23 11:53:00,80.8,80.2,29.67,NNE,22,1.7,-999.0,98,-99.99,,,0.00,Acu-Link.com,2013-08-23 15:53:00,
2013-08-23 12:08:00,81.0,80.4,29.67,NE,45,2.2,-999.0,98,-99.99,,,0.00,Acu-Link.com,2013-08-23 16:08:00,
2013-08-23 12:23:00,82.4,81.8,29.66,East,90,2.2,-999.0,98,-99.99,,,0.00,Acu-Link.com,2013-08-23 16:23:00,
2013-08-23 12:39:00,81.5,80.9,29.66,North,0,2.2,-999.0,98,-99.99,,,0.00,Acu-Link.com,2013-08-23 16:39:00,
2013-08-23 12:54:00,81.0,80.4,29.68,South,180,3.2,-999.0,98,-99.99,,,0.00,Acu-Link.com,2013-08-23 16:54:00,
2013-08-23 13:09:00,81.1,80.5,29.68,ENE,67,6.3,-999.0,98,-99.99,,,0.00,Acu-Link.com,2013-08-23 17:09:00,
2013-08-23 13:24:00,81.3,80.7,29.67,SSE,157,2.7,-999.0,98,-99.99,,,0.00,Acu-Link.com,2013-08-23 17:24:00,
2013-08-23 13:39:00,81.5,80.9,29.67,SE,135,2.2,-999.0,98,-99.99,,,0.00,Acu-Link.com,2013-08-23 17:39:00,
2013-08-23 13:54:00,81.0,80.4,29.69,East,90,5.3,-999.0,98,-99.99,,,0.00,Acu-Link.com,2013-08-23 17:54:00,
2013-08-23 14:09:00,80.8,80.2,29.69,SE,135,2.2,-999.0,98,-99.99,,,0.00,Acu-Link.com,2013-08-23 18:09:00,
2013-08-23 14:24:00,80.2,79.6,29.67,SSE,157,1.7,-999.0,98,-99.99,,,0.00,Acu-Link.com,2013-08-23 18:24:00,
2013-08-23 14:39:00,79.7,79.1,29.69,ESE,112,3.7,-999.0,98,-99.99,,,0.00,Acu-Link.com,2013-08-23 18:39:00,
2013-08-23 14:55:00,79.5,78.9,29.68,WSW,247,1.7,-999.0,98,-99.99,,,0.00,Acu-Link.com,2013-08-23 18:55:00,
2013-08-23 15:10:00,79.7,79.1,29.67,SSE,157,2.2,-999.0,98,-99.99,,,0.00,Acu-Link.com,2013-08-23 19:10:00,
2013-08-23 15:25:00,79.7,79.1,29.67,SW,225,2.2,-999.0,98,-99.99,,,0.00,Acu-Link.com,2013-08-23 19:25:00,
2013-08-23 15:40:00,78.8,78.2,29.67,West,270,0.0,-999.0,98,-99.99,,,0.00,Acu-Link.com,2013-08-23 19:40:00,
2013-08-23 15:55:00,79.0,78.4,29.67,NNE,22,0.0,-999.0,98,-99.99,,,0.00,Acu-Link.com,2013-08-23 19:55:00,
2013-08-23 16:10:00,79.0,78.4,29.67,WNW,292,0.0,-999.0,98,-99.99,,,0.00,Acu-Link.com,2013-08-23 20:10:00,
2013-08-23 16:25:00,79.0,78.4,29.69,East,90,0.0,-999.0,98,-99.99,,,0.00,Acu-Link.com,2013-08-23 20:25:00,
2013-08-23 16:41:00,79.9,79.3,29.69,SSE,157,0.0,-999.0,98,-99.99,,,0.00,Acu-Link.com,2013-08-23 20:41:00,
2013-08-23 16:56:00,80.2,79.6,29.68,SW,225,0.0,-999.0,98,-99.99,,,0.00,Acu-Link.com,2013-08-23 20:56:00,
2013-08-23 17:11:00,79.9,79.3,29.69,SSW,202,0.0,-999.0,98,-99.99,,,0.00,Acu-Link.com,2013-08-23 21:11:00,
2013-08-23 17:26:00,79.7,79.1,29.68,SW,225,0.0,-999.0,98,-99.99,,,0.00,Acu-Link.com,2013-08-23 21:26:00,
2013-08-23 17:41:00,79.2,78.6,29.67,West,270,0.0,-999.0,98,-99.99,,,0.00,Acu-Link.com,2013-08-23 21:41:00,
2013-08-23 17:56:00,80.1,79.5,29.70,WSW,247,0.0,-999.0,98,-99.99,,,0.00,Acu-Link.com,2013-08-23 21:56:00,
2013-08-23 18:12:00,79.3,78.7,29.68,SSE,157,1.1,-999.0,98,-99.99,,,0.00,Acu-Link.com,2013-08-23 22:12:00,
2013-08-23 18:27:00,78.4,77.8,29.68,NE,45,0.0,-999.0,98,-99.99,,,0.00,Acu-Link.com,2013-08-23 22:27:00,
2013-08-23 18:42:00,77.5,76.9,29.69,NW,315,0.0,-999.0,98,-99.99,,,0.00,Acu-Link.com,2013-08-23 22:42:00,
2013-08-23 18:57:00,77.0,76.4,29.69,NNW,337,0.0,-999.0,98,-99.99,,,0.00,Acu-Link.com,2013-08-23 22:57:00,
2013-08-23 19:12:00,75.6,75.0,29.70,NE,45,1.1,-999.0,98,-99.99,,,0.00,Acu-Link.com,2013-08-23 23:12:00,
2013-08-23 19:27:00,75.0,74.4,29.72,South,180,3.7,-999.0,98,-99.99,,,0.00,Acu-Link.com,2013-08-23 23:27:00,
2013-08-23 19:42:00,73.8,73.2,29.72,SSE,157,0.0,-999.0,98,-99.99,,,0.00,Acu-Link.com,2013-08-23 23:42:00,
2013-08-23 19:57:00,73.2,72.6,29.73,SW,225,0.0,-999.0,98,-99.99,,,0.00,Acu-Link.com,2013-08-23 23:57:00,
2013-08-23 20:12:00,72.5,71.9,29.74,SW,225,0.0,-999.0,98,-99.99,,,0.00,Acu-Link.com,2013-08-24 00:12:00,
2013-08-23 20:28:00,72.1,71.5,29.74,NE,45,0.0,-999.0,98,-99.99,,,0.00,Acu-Link.com,2013-08-24 00:28:00,
2013-08-23 20:43:00,72.0,71.4,29.76,SW,225,0.0,-999.0,98,-99.99,,,0.00,Acu-Link.com,2013-08-24 00:43:00,
2013-08-23 20:58:00,71.2,70.6,29.76,WSW,247,0.0,-999.0,98,-99.99,,,0.00,Acu-Link.com,2013-08-24 00:58:00,
2013-08-23 21:13:00,70.7,70.1,29.76,NNW,337,0.0,-999.0,98,-99.99,,,0.00,Acu-Link.com,2013-08-24 01:13:00,
2013-08-23 21:28:00,69.4,68.8,29.77,NNW,337,0.0,-999.0,98,-99.99,,,0.00,Acu-Link.com,2013-08-24 01:28:00,
2013-08-23 21:43:00,67.8,67.2,29.79,NNW,337,0.0,-999.0,98,-99.99,,,0.00,Acu-Link.com,2013-08-24 01:43:00,
2013-08-23 21:58:00,66.7,66.1,29.77,NNW,337,0.0,-999.0,98,-99.99,,,0.00,Acu-Link.com,2013-08-24 01:58:00,
2013-08-23 22:13:00,66.2,65.6,29.78,NE,45,0.0,-999.0,98,-99.99,,,0.00,Acu-Link.com,2013-08-24 02:13:00,
2013-08-23 22:28:00,65.5,64.9,29.79,West,270,0.0,-999.0,98,-99.99,,,0.00,Acu-Link.com,2013-08-24 02:28:00,
2013-08-23 22:43:00,65.1,64.5,29.78,SW,225,0.0,-999.0,98,-99.99,,,0.00,Acu-Link.com,2013-08-24 02:43:00,
2013-08-23 22:59:00,64.8,64.2,29.79,NNW,337,0.0,-999.0,98,-99.99,,,0.00,Acu-Link.com,2013-08-24 02:59:00,
2013-08-23 23:14:00,64.4,63.8,29.79,NW,315,0.0,-999.0,98,-99.99,,,0.00,Acu-Link.com,2013-08-24 03:14:00,
2013-08-23 23:29:00,64.4,63.8,29.79,SE,135,1.1,-999.0,98,-99.99,,,0.00,Acu-Link.com,2013-08-24 03:29:00,
2013-08-23 23:44:00,65.1,64.5,29.79,SSW,202,0.0,-999.0,98,-99.99,,,0.00,Acu-Link.com,2013-08-24 03:44:00,
2013-08-23 23:59:00,65.5,64.9,29.80,East,90,2.7,-999.0,98,-99.99,,,0.00,Acu-Link.com,2013-08-24 03:59:00,